Observations for SHAWBURY RAF, United Kingdom (EGOS)

EGOS 190250Z AUTO 18008KT 9999 FEW023/// 15/13 Q1007
EGOS 190150Z AUTO 18006KT 9999 NCD 15/13 Q1007  
EGOS 190050Z AUTO 16006KT 9999 SCT023/// SCT033/// 15/14 Q1008  
EGOS 182350Z AUTO 18006KT 9999 OVC170/// 15/14 Q1007
EGOS 182250Z AUTO 19010KT 9999 SCT120/// BKN160/// 16/14 Q1007  
EGOS 182150Z AUTO 20011KT 9999 BKN090/// 15/14 Q1007 RERA   
EGOS 182050Z AUTO 23014KT 2700 +RA SCT020/// BKN034/// 15/14 Q1007  
EGOS 181950Z AUTO 20018KT 9000 -RA BKN025/// BKN036/// 17/14 Q1006  
EGOS 181850Z AUTO 19017KT 9999 SCT035/// BKN050/// 18/14 Q1006  
EGOS 181750Z AUTO 20014KT 9999 FEW031/// BKN070/// 18/14 Q1006  
EGOS 181650Z AUTO 21021G31KT 9999 FEW033/// 19/13 Q1006 
EGOS 181550Z 21019KT 9999 SCT028 20/14 Q1006 BLU NOSIG  
EGOS 181450Z 23020KT 9999 SCT030 BKN220 20/14 Q1006 BLU NOSIG   
EGOS 181350Z 22017KT 9999 SCT028 BKN250 21/15 Q1005 BLU NOSIG   
EGOS 181250Z 22018KT 9999 FEW022 BKN025 19/14 Q1005 BLU TEMPO -SHRA SCT023 WHT  
EGOS 181150Z 23018KT 9999 FEW024 BKN026 BKN040 18/13 Q1005 BLU NOSIG
EGOS 181050Z 24023G35KT 9999 FEW028 19/12 Q1004 BLU NOSIG   
EGOS 181019Z 24022KT 9999 SCT025 SCT250 18/13 Q1003 BLU TEMPO 24022G32KT BLU
EGOS 181019Z 24022KT 9999 SCT025 SCT250 18/13 Q1003 BLU TEMPO 24022G32KT BLU
EGOS 180950Z 24025G35KT 9999 SCT020 BKN200 18/13 Q1003 WHT NOSIG
EGOS 180850Z 23021G31KT 9999 BKN020 18/15 Q1001 WHT NOSIG   
EGOS 180750Z 22020KT 9999 BKN020 18/15 Q1000 WHT TEMPO 22020G30KT WHT   
EGOS 180650Z 20018KT 9999 -DZ BKN018 18/15 Q0998 WHT TEMPO 20018G28KT WHT   
EGOS 180550Z 20018KT 9999 FEW013 BKN018 OVC030 18/15 Q0997 WHT  
EGOS 180450Z 18018KT 9999 -RA FEW013 SCT022 BKN028 18/16 Q0996 WHT  
EGOS 180350Z AUTO 16011KT 9999 -RA BKN013/// BKN021/// 17/16 Q0997  
EGOS 180250Z AUTO 15016KT 9999 BKN015/// SCT035/// 17/15 Q0998